KVRB/VRB METAR and TAF weather

Enter ICAO airport designator
Station Type Date Time Source
KVRB METAR 2019/02/16 16:53 UTC NOAA

KVRB 161653Z 26011KT 10SM CLR 26/14 A2993 RMK AO2 SLP136 T02560139


Station Type Date Time Source
KVRB Decoded METAR 2019/02/16 16:53 UTC NOAA

VERO BEACH MUNICIPAL AIRPORT , FL, United States (KVRB) 27-39N 080-25W 10M
Feb 16, 2019 - 11:53 AM EST / 2019.02.16 1653 UTC
Wind: from the W (260 degrees) at 13 MPH (11 KT):0
Visibility: 10 mile(s):0
Sky conditions: clear
Temperature: 78.1 F (25.6 C)
Dew Point: 57.0 F (13.9 C)
Relative Humidity: 48%
Pressure (altimeter): 29.93 in. Hg (1013 hPa)
ob: KVRB 161653Z 26011KT 10SM CLR 26/14 A2993 RMK AO2 SLP136 T02560139
cycle: 17

Station Type Date Time Source
KVRB TAF 2019/02/16 12:30 UTC NOAA

TAF KVRB 161127Z 1612/1712 21003KT P6SM BKN250
FM161500 23007KT P6SM SCT040 SCT250
FM162200 VRB05KT P6SM SCT040 SCT250


Example: see airport list